createdAt,value
2017-12-14T00:00:47.570Z,5.20
2017-12-14T00:03:15.980Z,5.40
2017-12-14T00:05:44.360Z,5.50
2017-12-14T00:08:12.744Z,5.00
2017-12-14T00:10:41.101Z,5.10
2017-12-14T00:13:09.444Z,4.40
2017-12-14T00:15:38.179Z,4.57
2017-12-14T00:18:06.623Z,4.00
2017-12-14T00:20:35.353Z,4.27
2017-12-14T00:23:03.833Z,3.73
2017-12-14T00:25:32.233Z,4.70
2017-12-14T00:28:02.175Z,4.00
2017-12-14T00:30:30.927Z,3.90
2017-12-14T00:32:59.295Z,4.17
2017-12-14T00:35:27.724Z,4.33
2017-12-14T00:37:56.469Z,4.10
2017-12-14T00:40:24.817Z,4.40
2017-12-14T00:42:53.185Z,4.10
2017-12-14T00:45:21.527Z,3.60
2017-12-14T00:47:49.872Z,4.03
2017-12-14T00:50:18.244Z,4.03
2017-12-14T00:52:46.584Z,4.00
2017-12-14T00:55:15.377Z,4.23
2017-12-14T00:57:43.743Z,3.57
2017-12-14T01:00:12.489Z,3.80
2017-12-14T01:02:40.864Z,3.77
2017-12-14T01:05:09.245Z,4.70
2017-12-14T01:07:37.604Z,9.37
2017-12-14T01:10:05.946Z,8.00
2017-12-14T01:12:34.688Z,7.33
2017-12-14T01:15:03.142Z,11.23
2017-12-14T01:17:31.557Z,5.10
2017-12-14T01:19:59.985Z,3.13
2017-12-14T01:22:28.820Z,4.90
2017-12-14T01:24:57.167Z,3.47
2017-12-14T01:27:25.681Z,4.60
2017-12-14T01:29:54.061Z,5.13
2017-12-14T01:32:22.429Z,3.03
2017-12-14T01:34:50.773Z,4.80
2017-12-14T01:37:19.166Z,3.80
2017-12-14T01:39:47.515Z,5.50
2017-12-14T01:42:16.267Z,4.10
2017-12-14T01:44:44.740Z,5.63
2017-12-14T01:47:13.081Z,5.70
2017-12-14T01:49:41.565Z,4.93
2017-12-14T01:52:09.920Z,8.00
2017-12-14T01:54:38.668Z,11.10
2017-12-14T01:57:07.048Z,6.70
2017-12-14T01:59:35.426Z,6.50
2017-12-14T02:02:03.775Z,6.57
2017-12-14T02:04:32.175Z,5.30
2017-12-14T02:07:00.557Z,7.67
2017-12-14T02:09:28.908Z,8.70
2017-12-14T02:11:57.250Z,7.20
2017-12-14T02:14:25.598Z,6.53
2017-12-14T02:16:53.973Z,6.73
2017-12-14T02:19:22.340Z,6.40
2017-12-14T02:21:50.681Z,6.47
2017-12-14T02:24:19.532Z,6.20
2017-12-14T02:26:47.893Z,6.20
2017-12-14T02:29:16.245Z,6.77
2017-12-14T02:31:44.763Z,7.43
2017-12-14T02:34:13.108Z,7.20
2017-12-14T02:36:41.503Z,7.53
2017-12-14T02:39:09.889Z,7.20
2017-12-14T02:41:38.273Z,7.63
2017-12-14T02:44:06.624Z,7.00
2017-12-14T02:46:35.020Z,7.57
2017-12-14T02:49:04.275Z,8.23
2017-12-14T02:51:33.026Z,8.27
2017-12-14T02:54:01.368Z,7.40
2017-12-14T02:56:29.745Z,8.30
2017-12-14T02:58:58.088Z,8.37
2017-12-14T03:01:26.520Z,8.70
2017-12-14T03:03:54.885Z,7.90
2017-12-14T03:06:23.282Z,8.57
2017-12-14T03:08:51.670Z,13.40
2017-12-14T03:11:20.053Z,8.27
2017-12-14T03:13:48.417Z,11.73
2017-12-14T03:16:16.792Z,8.83
2017-12-14T03:18:45.145Z,9.70
2017-12-14T03:24:11.130Z,12.53
2017-12-14T03:26:39.519Z,11.50
2017-12-14T03:29:07.864Z,11.87
2017-12-14T03:31:36.250Z,9.67
2017-12-14T03:34:04.601Z,8.90
2017-12-14T03:36:33.009Z,8.17
2017-12-14T03:39:01.346Z,7.43
2017-12-14T03:41:30.088Z,9.13
2017-12-14T03:43:58.424Z,7.83
2017-12-14T03:46:26.828Z,7.47
2017-12-14T03:48:55.174Z,6.57
2017-12-14T03:51:23.516Z,7.80
2017-12-14T03:53:51.926Z,6.20
2017-12-14T03:56:20.247Z,6.70
2017-12-14T03:58:48.668Z,6.30
2017-12-14T04:01:17.525Z,5.63
2017-12-14T04:03:45.861Z,6.80
2017-12-14T04:06:14.208Z,5.67
2017-12-14T04:08:42.731Z,4.97
2017-12-14T04:11:11.135Z,4.30
2017-12-14T04:13:39.495Z,5.70
2017-12-14T04:16:07.847Z,7.23
2017-12-14T04:18:36.684Z,4.27
2017-12-14T04:21:05.031Z,3.40
2017-12-14T04:23:33.447Z,3.10
2017-12-14T04:26:01.964Z,2.90
2017-12-14T04:28:30.698Z,2.50
2017-12-14T04:30:59.039Z,2.63
2017-12-14T04:33:27.792Z,2.60
2017-12-14T04:35:56.253Z,2.90
2017-12-14T04:38:24.596Z,2.70
2017-12-14T04:40:52.946Z,2.57
2017-12-14T04:43:21.384Z,2.00
2017-12-14T04:45:49.722Z,2.37
2017-12-14T04:48:18.456Z,2.03
2017-12-14T04:50:46.811Z,2.50
2017-12-14T04:53:15.313Z,2.20
2017-12-14T04:55:43.693Z,2.67
2017-12-14T04:58:12.087Z,2.80
2017-12-14T05:00:40.544Z,3.17
2017-12-14T05:03:08.983Z,2.73
2017-12-14T05:05:37.821Z,2.07
2017-12-14T05:08:06.163Z,2.57
2017-12-14T05:10:34.531Z,2.30
2017-12-14T05:13:03.295Z,2.70
2017-12-14T05:15:31.640Z,2.53
2017-12-14T05:17:59.990Z,2.50
2017-12-14T05:20:28.345Z,2.10
2017-12-14T05:22:57.184Z,2.30
2017-12-14T05:25:25.523Z,2.07
2017-12-14T05:27:54.347Z,2.27
2017-12-14T05:30:22.737Z,2.20
2017-12-14T05:32:51.114Z,2.40
2017-12-14T05:35:19.476Z,2.23
2017-12-14T05:37:48.703Z,2.50
2017-12-14T05:40:17.176Z,2.53
2017-12-14T05:42:45.544Z,2.23
2017-12-14T05:45:14.166Z,2.73
2017-12-14T05:47:42.509Z,3.00
2017-12-14T05:50:10.859Z,3.90
2017-12-14T05:52:39.220Z,2.53
2017-12-14T05:55:08.054Z,2.93
2017-12-14T05:57:37.145Z,3.30
2017-12-14T06:00:05.528Z,3.10
2017-12-14T06:02:33.900Z,2.43
2017-12-14T06:05:02.252Z,2.10
2017-12-14T06:07:30.664Z,2.83
2017-12-14T06:09:59.010Z,3.83
2017-12-14T06:12:27.424Z,2.70
2017-12-14T06:14:55.777Z,2.30
2017-12-14T06:17:24.132Z,3.07
2017-12-14T06:19:52.509Z,2.80
2017-12-14T06:22:20.827Z,2.93
2017-12-14T06:24:49.165Z,2.97
2017-12-14T06:27:17.909Z,2.83
2017-12-14T06:29:46.285Z,3.60
2017-12-14T06:32:14.675Z,4.63
2017-12-14T06:34:43.048Z,3.40
2017-12-14T06:37:11.401Z,2.97
2017-12-14T06:39:39.773Z,3.17
2017-12-14T06:42:08.168Z,2.90
2017-12-14T06:44:36.652Z,3.60
2017-12-14T06:47:04.995Z,3.30
2017-12-14T06:49:33.434Z,3.40
2017-12-14T06:52:01.888Z,3.40
2017-12-14T06:54:30.271Z,3.40
2017-12-14T06:56:58.623Z,3.93
2017-12-14T06:59:26.975Z,3.77
2017-12-14T07:01:55.716Z,3.10
2017-12-14T07:04:24.075Z,2.90
2017-12-14T07:06:52.420Z,3.03
2017-12-14T07:09:21.159Z,3.50
2017-12-14T07:11:49.587Z,3.87
2017-12-14T07:14:18.332Z,4.20
2017-12-14T07:16:46.773Z,3.20
2017-12-14T07:19:15.180Z,3.33
2017-12-14T07:21:43.528Z,3.90
2017-12-14T07:24:11.943Z,3.73
2017-12-14T07:26:40.326Z,4.10
2017-12-14T07:29:08.671Z,4.93
2017-12-14T07:31:37.086Z,4.60
2017-12-14T07:34:05.464Z,4.33
2017-12-14T07:36:33.818Z,3.83
2017-12-14T07:39:02.218Z,5.40
2017-12-14T07:41:30.592Z,4.07
2017-12-14T07:44:16.580Z,4.37
2017-12-14T07:47:02.580Z,3.80
2017-12-14T07:49:30.924Z,4.07
2017-12-14T07:51:59.276Z,4.00
2017-12-14T07:54:28.027Z,4.07
2017-12-14T07:56:56.380Z,3.30
2017-12-14T07:59:24.776Z,3.63
2017-12-14T08:01:53.124Z,3.80
2017-12-14T08:04:21.563Z,4.33
2017-12-14T08:06:49.924Z,3.17
2017-12-14T08:09:18.271Z,3.40
2017-12-14T08:11:46.623Z,4.00
2017-12-14T08:14:15.374Z,3.93
2017-12-14T08:16:43.835Z,3.27
2017-12-14T08:19:12.173Z,3.30
2017-12-14T08:21:40.985Z,3.93
2017-12-14T08:24:09.283Z,3.93
2017-12-14T08:26:37.632Z,3.20
2017-12-14T08:29:05.974Z,3.50
2017-12-14T08:31:34.319Z,3.20
2017-12-14T08:34:02.833Z,3.50
2017-12-14T08:36:31.279Z,3.37
2017-12-14T08:38:59.627Z,3.57
2017-12-14T08:41:27.977Z,3.17
2017-12-14T08:43:56.897Z,3.10
2017-12-14T08:46:25.715Z,3.33
2017-12-14T08:48:54.060Z,3.07
2017-12-14T08:51:22.471Z,2.97
2017-12-14T08:53:50.849Z,3.30
2017-12-14T08:56:19.248Z,3.03
2017-12-14T08:58:47.608Z,4.00
2017-12-14T09:01:15.956Z,2.73
2017-12-14T09:03:44.307Z,3.83
2017-12-14T09:06:13.050Z,3.13
2017-12-14T09:08:41.392Z,3.20
2017-12-14T09:11:09.748Z,2.73
2017-12-14T09:13:38.291Z,3.80
2017-12-14T09:16:06.643Z,4.33
2017-12-14T09:18:34.983Z,4.13
2017-12-14T09:21:03.339Z,3.70
2017-12-14T09:23:31.671Z,4.37
2017-12-14T09:26:00.016Z,3.20
2017-12-14T09:28:28.462Z,3.90
2017-12-14T09:30:56.808Z,2.67
2017-12-14T09:33:25.148Z,2.73
2017-12-14T09:35:53.593Z,3.07
2017-12-14T09:38:21.938Z,3.23
2017-12-14T09:40:50.299Z,2.67
2017-12-14T09:43:19.040Z,3.10
2017-12-14T09:45:47.426Z,2.83
2017-12-14T09:48:15.784Z,2.70
2017-12-14T09:50:44.129Z,2.60
2017-12-14T09:53:12.863Z,2.70
2017-12-14T09:55:41.227Z,2.73
2017-12-14T09:58:09.568Z,2.27
2017-12-14T10:00:38.416Z,2.40
2017-12-14T10:03:06.758Z,2.90
2017-12-14T10:05:35.224Z,2.70
2017-12-14T10:08:04.054Z,2.70
2017-12-14T10:10:32.433Z,2.70
2017-12-14T10:13:00.817Z,2.80
2017-12-14T10:15:29.160Z,2.80
2017-12-14T10:17:57.499Z,3.03
2017-12-14T10:20:25.944Z,3.33
2017-12-14T10:22:54.331Z,2.20
2017-12-14T10:25:22.699Z,2.97
2017-12-14T10:27:51.040Z,2.60
2017-12-14T10:30:19.801Z,2.50
2017-12-14T10:32:48.144Z,2.27
2017-12-14T10:35:16.508Z,2.37
2017-12-14T10:37:44.848Z,2.63
2017-12-14T10:40:13.288Z,2.70
2017-12-14T10:42:41.747Z,2.37
2017-12-14T10:45:10.101Z,2.70
2017-12-14T10:47:38.839Z,2.10
2017-12-14T10:50:07.218Z,2.47
2017-12-14T10:52:35.570Z,3.50
2017-12-14T10:55:03.912Z,2.60
2017-12-14T10:57:32.684Z,2.57
2017-12-14T11:00:01.018Z,3.57
2017-12-14T11:02:29.414Z,2.80
2017-12-14T11:04:57.770Z,3.10
2017-12-14T11:07:26.168Z,2.50
2017-12-14T11:09:54.511Z,2.37
2017-12-14T11:12:22.876Z,2.50
2017-12-14T11:14:51.616Z,2.60
2017-12-14T11:17:20.098Z,2.50
2017-12-14T11:19:48.444Z,2.77
2017-12-14T11:22:16.804Z,2.50
2017-12-14T11:24:45.644Z,2.30
2017-12-14T11:27:14.001Z,3.17
2017-12-14T11:29:42.345Z,2.70
2017-12-14T11:32:11.088Z,2.10
2017-12-14T11:34:39.438Z,2.70
2017-12-14T11:37:07.792Z,1.90
2017-12-14T11:39:36.523Z,2.20
2017-12-14T11:42:04.875Z,1.83
2017-12-14T11:44:33.225Z,1.67
2017-12-14T11:47:02.066Z,1.33
2017-12-14T11:49:30.397Z,2.07
2017-12-14T11:52:00.005Z,1.63
2017-12-14T11:54:28.872Z,1.70
2017-12-14T11:56:57.390Z,1.77
2017-12-14T11:59:26.221Z,1.53
2017-12-14T12:01:54.561Z,1.87
2017-12-14T12:04:22.904Z,1.33
2017-12-14T12:06:51.348Z,0.97
2017-12-14T12:09:19.723Z,1.20
2017-12-14T12:11:48.077Z,1.77
2017-12-14T12:14:16.483Z,1.17
2017-12-14T12:16:44.825Z,1.17
2017-12-14T12:19:13.568Z,1.63
2017-12-14T12:21:41.946Z,1.27
2017-12-14T12:24:10.284Z,1.40
2017-12-14T12:26:38.632Z,1.53
2017-12-14T12:29:07.370Z,0.97
2017-12-14T12:31:35.756Z,1.57
2017-12-14T12:34:04.094Z,1.30
2017-12-14T12:36:32.903Z,1.37
2017-12-14T12:39:01.312Z,1.50
2017-12-14T12:41:29.672Z,1.43
2017-12-14T12:43:58.008Z,1.83
2017-12-14T12:46:26.752Z,1.40
2017-12-14T12:48:55.094Z,1.40
2017-12-14T12:51:23.464Z,1.50
2017-12-14T12:53:52.203Z,1.50
2017-12-14T12:56:20.565Z,1.70
2017-12-14T12:58:48.941Z,1.53
2017-12-14T13:01:17.480Z,1.20
2017-12-14T13:03:45.904Z,2.00
2017-12-14T13:06:14.246Z,1.70
2017-12-14T13:08:43.000Z,1.30
2017-12-14T13:11:11.455Z,1.47
2017-12-14T13:13:39.840Z,1.33
2017-12-14T13:16:08.213Z,1.33
2017-12-14T13:18:36.583Z,1.70
2017-12-14T13:21:04.933Z,1.40
2017-12-14T13:23:33.353Z,1.40
2017-12-14T13:26:01.760Z,1.60
2017-12-14T13:28:30.121Z,1.50
2017-12-14T13:30:58.461Z,1.80
2017-12-14T13:33:26.812Z,2.00
2017-12-14T13:35:55.175Z,1.70
2017-12-14T13:38:23.503Z,1.90
2017-12-14T13:40:51.917Z,2.30
2017-12-14T13:43:20.274Z,1.70
2017-12-14T13:45:48.652Z,1.83
2017-12-14T13:48:17.083Z,1.87
2017-12-14T13:50:45.825Z,1.93
2017-12-14T13:53:14.168Z,1.47
2017-12-14T13:55:42.515Z,2.20
2017-12-14T13:58:10.861Z,1.80
2017-12-14T14:00:39.269Z,1.70
2017-12-14T14:03:07.664Z,1.50
2017-12-14T14:05:35.973Z,1.60
2017-12-14T14:08:04.308Z,2.10
2017-12-14T14:10:32.728Z,1.77
2017-12-14T14:13:01.056Z,1.63
2017-12-14T14:15:29.410Z,1.60
2017-12-14T14:17:57.818Z,2.20
2017-12-14T14:20:26.167Z,2.00
2017-12-14T14:22:54.621Z,2.17
2017-12-14T14:25:22.967Z,2.03
2017-12-14T14:27:51.713Z,1.90
2017-12-14T14:30:20.102Z,1.97
2017-12-14T14:32:48.448Z,2.03
2017-12-14T14:35:16.835Z,2.07
2017-12-14T14:37:45.185Z,1.90
2017-12-14T14:40:13.560Z,1.63
2017-12-14T14:42:41.903Z,2.37
2017-12-14T14:45:10.357Z,1.90
2017-12-14T14:47:38.702Z,1.80
2017-12-14T14:50:07.179Z,2.03
2017-12-14T14:52:35.595Z,1.90
2017-12-14T14:55:04.076Z,2.30
2017-12-14T14:57:32.411Z,2.17
2017-12-14T15:00:01.268Z,1.67
2017-12-14T15:02:29.634Z,2.33
2017-12-14T15:04:57.980Z,1.87
2017-12-14T15:07:26.351Z,2.40
2017-12-14T15:09:54.698Z,2.77
2017-12-14T15:12:23.052Z,1.93
2017-12-14T15:14:51.413Z,2.90
2017-12-14T15:17:19.800Z,2.70
2017-12-14T15:19:48.177Z,2.73
2017-12-14T15:22:16.547Z,2.10
2017-12-14T15:24:44.890Z,2.23
2017-12-14T15:27:13.231Z,2.50
2017-12-14T15:29:41.576Z,2.10
2017-12-14T15:32:09.916Z,1.87
2017-12-14T15:34:38.648Z,2.63
2017-12-14T15:37:06.997Z,2.30
2017-12-14T15:39:35.340Z,2.20
2017-12-14T15:42:03.688Z,2.40
2017-12-14T15:44:32.060Z,3.20
2017-12-14T15:47:00.412Z,2.27
2017-12-14T15:49:28.756Z,3.80
2017-12-14T15:51:57.106Z,2.43
2017-12-14T15:54:25.555Z,2.40
2017-12-14T15:56:53.898Z,2.63
2017-12-14T15:59:22.628Z,3.47
2017-12-14T16:01:50.995Z,3.00
2017-12-14T16:04:19.330Z,2.53
2017-12-14T16:06:47.673Z,2.20
2017-12-14T16:09:16.003Z,2.27
2017-12-14T16:11:44.740Z,2.27
2017-12-14T16:14:13.228Z,2.43
2017-12-14T16:16:41.580Z,2.70
2017-12-14T16:19:09.903Z,3.33
2017-12-14T16:21:38.249Z,2.30
2017-12-14T16:24:06.583Z,2.27
2017-12-14T16:26:35.425Z,3.10
2017-12-14T16:29:03.805Z,3.40
2017-12-14T16:31:32.147Z,2.83
2017-12-14T16:34:00.570Z,3.27
2017-12-14T16:36:28.927Z,2.97
2017-12-14T16:38:57.312Z,2.97
2017-12-14T16:41:25.708Z,2.60
2017-12-14T16:43:54.052Z,2.40
2017-12-14T16:46:22.439Z,2.20
2017-12-14T16:48:50.776Z,2.07
2017-12-14T16:51:19.615Z,2.30
2017-12-14T16:53:47.952Z,2.23
2017-12-14T16:56:16.684Z,1.93
2017-12-14T16:58:45.062Z,2.60
2017-12-14T17:01:13.416Z,2.50
2017-12-14T17:03:41.758Z,2.70
2017-12-14T17:06:10.140Z,1.73
2017-12-14T17:08:38.891Z,2.80
2017-12-14T17:11:07.294Z,2.80
2017-12-14T17:13:35.631Z,3.03
2017-12-14T17:16:03.983Z,2.60
2017-12-14T17:18:32.362Z,3.10
2017-12-14T17:21:00.707Z,3.70
2017-12-14T17:23:29.040Z,3.87
2017-12-14T17:25:57.392Z,4.73
2017-12-14T17:28:26.123Z,4.43
2017-12-14T17:30:54.471Z,5.03
2017-12-14T17:33:22.887Z,4.77
2017-12-14T17:35:51.266Z,4.97
2017-12-14T17:38:19.610Z,5.47
2017-12-14T17:40:48.020Z,6.97
2017-12-14T17:43:16.372Z,6.60
2017-12-14T17:45:44.806Z,5.83
2017-12-14T17:48:13.252Z,6.90
2017-12-14T17:50:41.603Z,7.00
2017-12-14T17:53:09.981Z,7.00
2017-12-14T17:55:38.386Z,6.00
2017-12-14T17:58:06.762Z,6.73
2017-12-14T18:00:35.121Z,5.20
2017-12-14T18:03:03.463Z,6.13
2017-12-14T18:05:32.320Z,5.80
2017-12-14T18:08:00.666Z,6.70
2017-12-14T18:10:29.023Z,6.43
2017-12-14T18:12:57.856Z,6.77
2017-12-14T18:15:26.216Z,5.20
2017-12-14T18:17:54.559Z,6.37
2017-12-14T18:20:23.315Z,7.00
2017-12-14T18:22:51.652Z,6.27
2017-12-14T18:25:19.999Z,6.60
2017-12-14T18:27:48.740Z,6.00
2017-12-14T18:30:17.084Z,6.00
2017-12-14T18:32:45.504Z,5.40
2017-12-14T18:35:13.849Z,5.50
2017-12-14T18:37:42.184Z,5.53
2017-12-14T18:40:10.516Z,4.93
2017-12-14T18:42:38.865Z,4.40
2017-12-14T18:45:07.223Z,4.73
2017-12-14T18:47:35.652Z,5.47
2017-12-14T18:50:04.144Z,6.10
2017-12-14T18:52:32.489Z,6.50
2017-12-14T18:55:01.216Z,6.53
2017-12-14T18:57:29.560Z,7.03
2017-12-14T18:59:57.968Z,6.47
2017-12-14T19:02:26.348Z,6.17
2017-12-14T19:04:54.679Z,6.70
2017-12-14T19:07:23.418Z,5.90
2017-12-14T19:09:51.779Z,9.77
2017-12-14T19:12:20.136Z,13.23
2017-12-14T19:14:48.481Z,8.30
2017-12-14T19:17:16.951Z,12.83
2017-12-14T19:19:45.365Z,17.17
2017-12-14T19:22:14.115Z,12.27
2017-12-14T19:24:42.456Z,10.60
2017-12-14T19:27:11.027Z,14.33
2017-12-14T19:29:39.395Z,9.77
2017-12-14T19:32:08.229Z,5.30
2017-12-14T19:34:36.697Z,5.27
2017-12-14T19:37:05.089Z,7.83
2017-12-14T19:39:33.456Z,5.03
2017-12-14T19:42:01.801Z,4.97
2017-12-14T19:44:30.563Z,4.00
2017-12-14T19:46:58.907Z,4.27
2017-12-14T19:49:27.249Z,4.90
2017-12-14T19:51:55.599Z,4.33
2017-12-14T19:54:23.939Z,5.13
2017-12-14T19:56:52.293Z,5.43
2017-12-14T19:59:20.634Z,5.63
2017-12-14T20:01:48.977Z,5.17
2017-12-14T20:04:17.332Z,5.90
2017-12-14T20:06:45.737Z,5.40
2017-12-14T20:09:14.080Z,5.70
2017-12-14T20:11:42.451Z,6.20
2017-12-14T20:14:11.320Z,6.20
2017-12-14T20:16:39.710Z,5.50
2017-12-14T20:19:08.446Z,6.73
2017-12-14T20:21:36.877Z,5.10
2017-12-14T20:24:05.303Z,5.50
2017-12-14T20:26:33.797Z,5.87
2017-12-14T20:29:02.132Z,5.83
2017-12-14T20:31:30.504Z,6.83
2017-12-14T20:33:59.233Z,7.50
2017-12-14T20:36:27.603Z,6.90
2017-12-14T20:38:55.947Z,6.33
2017-12-14T20:41:24.693Z,7.20
2017-12-14T20:43:53.037Z,6.83
2017-12-14T20:46:21.381Z,5.80
2017-12-14T20:48:50.131Z,5.73
2017-12-14T20:51:18.480Z,4.60
2017-12-14T20:53:46.808Z,4.90
2017-12-14T20:56:15.143Z,5.90
2017-12-14T20:58:43.493Z,5.60
2017-12-14T21:01:12.315Z,5.23
2017-12-14T21:03:40.677Z,5.40
2017-12-14T21:06:09.023Z,5.90
2017-12-14T21:08:37.356Z,4.27
2017-12-14T21:11:05.698Z,4.23
2017-12-14T21:13:34.107Z,4.60
2017-12-14T21:16:02.453Z,5.17
2017-12-14T21:18:30.793Z,4.23
2017-12-14T21:20:59.444Z,4.30
2017-12-14T21:23:27.851Z,5.93
2017-12-14T21:25:56.191Z,5.53
2017-12-14T21:28:24.524Z,5.90
2017-12-14T21:30:53.335Z,4.80
2017-12-14T21:33:22.111Z,4.83
2017-12-14T21:35:50.853Z,5.57
2017-12-14T21:38:19.207Z,5.43
2017-12-14T21:43:22.572Z,7.50
2017-12-14T21:45:51.020Z,13.20
2017-12-14T21:48:19.481Z,9.07
2017-12-14T21:50:47.983Z,10.50
2017-12-14T21:53:16.357Z,7.10
2017-12-14T21:55:44.712Z,5.97
2017-12-14T21:58:13.078Z,6.90
2017-12-14T22:00:41.495Z,6.00
2017-12-14T22:03:09.872Z,7.00
2017-12-14T22:05:37.578Z,6.00
2017-12-14T22:08:05.918Z,9.00
2017-12-14T22:10:34.285Z,11.30
2017-12-14T22:13:02.627Z,6.40
2017-12-14T22:15:31.368Z,5.47
2017-12-14T22:17:59.744Z,5.67
2017-12-14T22:20:28.100Z,13.20
2017-12-14T22:22:56.473Z,9.30
2017-12-14T22:25:24.844Z,5.70
2017-12-14T22:27:53.270Z,6.30
2017-12-14T22:30:21.616Z,6.47
2017-12-14T22:32:49.965Z,9.87
2017-12-14T22:35:18.709Z,7.60
2017-12-14T22:37:47.044Z,7.70
2017-12-14T22:40:15.403Z,8.47
2017-12-14T22:42:44.123Z,5.17
2017-12-14T22:45:12.491Z,4.30
2017-12-14T22:47:40.832Z,3.43
2017-12-14T22:50:09.184Z,3.57
2017-12-14T22:52:37.522Z,5.80
2017-12-14T22:55:05.924Z,3.30
2017-12-14T22:57:34.261Z,3.20
2017-12-14T23:00:03.052Z,3.07
2017-12-14T23:02:31.928Z,2.33
2017-12-14T23:05:00.364Z,2.33
2017-12-14T23:07:28.748Z,2.37
2017-12-14T23:09:57.098Z,4.40
2017-12-14T23:12:25.499Z,3.87
2017-12-14T23:14:53.840Z,3.47
2017-12-14T23:17:22.585Z,3.13
2017-12-14T23:19:50.945Z,2.90
2017-12-14T23:22:19.324Z,2.00
2017-12-14T23:24:47.665Z,2.73
2017-12-14T23:27:16.493Z,5.73
2017-12-14T23:29:44.883Z,2.70
2017-12-14T23:32:13.229Z,4.40
2017-12-14T23:34:41.624Z,6.10
2017-12-14T23:37:10.012Z,4.10
2017-12-14T23:39:38.357Z,1.93
2017-12-14T23:42:06.716Z,4.90
2017-12-14T23:44:35.445Z,2.47
2017-12-14T23:47:03.781Z,2.13
2017-12-14T23:49:32.627Z,9.17
2017-12-14T23:52:00.983Z,6.20
2017-12-14T23:54:29.326Z,8.97
2017-12-14T23:56:58.073Z,4.30
2017-12-14T23:59:26.523Z,3.80
